sensor_id;sensor_type;location;lat;lon;timestamp;temperature;humidity
530;DHT22;251;48.704;9.210;2022-09-03T00:00:48;14.50;41.80
530;DHT22;251;48.704;9.210;2022-09-03T00:03:19;14.50;40.70
530;DHT22;251;48.704;9.210;2022-09-03T00:05:52;14.60;41.40
530;DHT22;251;48.704;9.210;2022-09-03T00:08:29;14.70;42.20
530;DHT22;251;48.704;9.210;2022-09-03T00:11:02;14.90;42.20
530;DHT22;251;48.704;9.210;2022-09-03T00:13:34;14.70;41.90
530;DHT22;251;48.704;9.210;2022-09-03T00:16:05;14.80;41.30
530;DHT22;251;48.704;9.210;2022-09-03T00:18:37;14.50;41.10
530;DHT22;251;48.704;9.210;2022-09-03T00:21:10;14.70;42.70
530;DHT22;251;48.704;9.210;2022-09-03T00:23:41;14.70;43.50
530;DHT22;251;48.704;9.210;2022-09-03T00:26:19;14.80;44.20
530;DHT22;251;48.704;9.210;2022-09-03T00:28:53;15.10;42.10
530;DHT22;251;48.704;9.210;2022-09-03T00:31:27;14.60;41.10
530;DHT22;251;48.704;9.210;2022-09-03T00:33:59;15.00;41.90
530;DHT22;251;48.704;9.210;2022-09-03T00:36:34;14.90;42.30
530;DHT22;251;48.704;9.210;2022-09-03T00:39:10;14.50;41.90
530;DHT22;251;48.704;9.210;2022-09-03T00:41:39;14.70;42.70
530;DHT22;251;48.704;9.210;2022-09-03T00:44:20;14.70;42.30
530;DHT22;251;48.704;9.210;2022-09-03T00:46:56;14.70;42.70
530;DHT22;251;48.704;9.210;2022-09-03T00:49:34;14.90;43.90
530;DHT22;251;48.704;9.210;2022-09-03T00:52:12;14.80;43.80
530;DHT22;251;48.704;9.210;2022-09-03T00:54:55;15.20;44.40
530;DHT22;251;48.704;9.210;2022-09-03T00:57:34;14.80;44.40
530;DHT22;251;48.704;9.210;2022-09-03T01:00:07;14.60;44.60
530;DHT22;251;48.704;9.210;2022-09-03T01:02:48;15.20;44.60
530;DHT22;251;48.704;9.210;2022-09-03T01:05:28;15.20;43.40
530;DHT22;251;48.704;9.210;2022-09-03T01:08:07;15.20;44.20
530;DHT22;251;48.704;9.210;2022-09-03T01:10:43;14.90;44.50
530;DHT22;251;48.704;9.210;2022-09-03T01:13:15;15.30;44.90
530;DHT22;251;48.704;9.210;2022-09-03T01:15:51;15.00;44.10
530;DHT22;251;48.704;9.210;2022-09-03T01:18:30;15.20;45.20
530;DHT22;251;48.704;9.210;2022-09-03T01:21:15;15.00;44.90
530;DHT22;251;48.704;9.210;2022-09-03T01:24:19;15.00;44.50
530;DHT22;251;48.704;9.210;2022-09-03T01:27:17;15.30;45.20
530;DHT22;251;48.704;9.210;2022-09-03T01:29:51;15.00;44.80
530;DHT22;251;48.704;9.210;2022-09-03T01:32:26;15.20;44.80
530;DHT22;251;48.704;9.210;2022-09-03T01:35:01;15.00;44.60
530;DHT22;251;48.704;9.210;2022-09-03T01:37:37;15.00;45.00
530;DHT22;251;48.704;9.210;2022-09-03T01:40:20;15.30;47.20
530;DHT22;251;48.704;9.210;2022-09-03T01:43:00;15.40;47.10
530;DHT22;251;48.704;9.210;2022-09-03T01:45:38;15.30;45.40
530;DHT22;251;48.704;9.210;2022-09-03T01:48:18;15.20;45.80
530;DHT22;251;48.704;9.210;2022-09-03T01:50:50;15.00;45.40
530;DHT22;251;48.704;9.210;2022-09-03T01:53:38;15.00;45.30
530;DHT22;251;48.704;9.210;2022-09-03T01:56:18;14.80;44.80
530;DHT22;251;48.704;9.210;2022-09-03T01:58:51;15.00;44.80
530;DHT22;251;48.704;9.210;2022-09-03T02:01:25;14.90;45.50
530;DHT22;251;48.704;9.210;2022-09-03T02:03:54;15.30;46.60
530;DHT22;251;48.704;9.210;2022-09-03T02:06:24;15.20;46.20
530;DHT22;251;48.704;9.210;2022-09-03T02:08:51;15.00;46.70
530;DHT22;251;48.704;9.210;2022-09-03T02:11:18;14.80;46.80
530;DHT22;251;48.704;9.210;2022-09-03T02:13:48;15.00;47.00
530;DHT22;251;48.704;9.210;2022-09-03T02:16:17;15.00;45.50
530;DHT22;251;48.704;9.210;2022-09-03T02:18:50;14.90;43.80
530;DHT22;251;48.704;9.210;2022-09-03T02:21:19;15.00;45.60
530;DHT22;251;48.704;9.210;2022-09-03T02:23:47;15.30;44.40
530;DHT22;251;48.704;9.210;2022-09-03T02:26:17;15.00;45.60
530;DHT22;251;48.704;9.210;2022-09-03T02:28:44;15.00;44.90
530;DHT22;251;48.704;9.210;2022-09-03T02:31:11;14.90;45.50
530;DHT22;251;48.704;9.210;2022-09-03T02:33:39;15.00;45.20
530;DHT22;251;48.704;9.210;2022-09-03T02:36:11;15.20;44.30
530;DHT22;251;48.704;9.210;2022-09-03T02:38:40;15.20;44.70
530;DHT22;251;48.704;9.210;2022-09-03T02:41:07;15.10;46.30
530;DHT22;251;48.704;9.210;2022-09-03T02:43:41;15.20;45.20
530;DHT22;251;48.704;9.210;2022-09-03T02:46:15;15.00;44.80
530;DHT22;251;48.704;9.210;2022-09-03T02:48:42;14.90;45.00
530;DHT22;251;48.704;9.210;2022-09-03T02:51:10;14.90;44.60
530;DHT22;251;48.704;9.210;2022-09-03T02:53:38;15.00;44.60
530;DHT22;251;48.704;9.210;2022-09-03T02:56:05;14.90;44.30
530;DHT22;251;48.704;9.210;2022-09-03T02:58:32;15.20;44.20
530;DHT22;251;48.704;9.210;2022-09-03T03:00:58;15.00;44.00
530;DHT22;251;48.704;9.210;2022-09-03T03:03:25;15.00;44.80
530;DHT22;251;48.704;9.210;2022-09-03T03:05:53;15.00;44.20
530;DHT22;251;48.704;9.210;2022-09-03T03:08:23;15.20;44.40
530;DHT22;251;48.704;9.210;2022-09-03T03:10:52;14.70;44.90
530;DHT22;251;48.704;9.210;2022-09-03T03:13:21;15.00;46.60
530;DHT22;251;48.704;9.210;2022-09-03T03:15:48;14.50;46.30
530;DHT22;251;48.704;9.210;2022-09-03T03:18:15;15.00;46.40
530;DHT22;251;48.704;9.210;2022-09-03T03:20:43;14.80;46.20
530;DHT22;251;48.704;9.210;2022-09-03T03:23:10;14.70;46.80
530;DHT22;251;48.704;9.210;2022-09-03T03:25:38;14.60;46.50
530;DHT22;251;48.704;9.210;2022-09-03T03:28:06;14.60;46.40
530;DHT22;251;48.704;9.210;2022-09-03T03:30:36;14.60;46.50
530;DHT22;251;48.704;9.210;2022-09-03T03:33:03;14.50;47.70
530;DHT22;251;48.704;9.210;2022-09-03T03:35:30;14.60;46.50
530;DHT22;251;48.704;9.210;2022-09-03T03:37:57;14.50;46.80
530;DHT22;251;48.704;9.210;2022-09-03T03:40:24;14.60;47.80
530;DHT22;251;48.704;9.210;2022-09-03T03:42:52;14.60;47.30
530;DHT22;251;48.704;9.210;2022-09-03T03:45:19;14.50;47.30
530;DHT22;251;48.704;9.210;2022-09-03T03:47:46;14.50;48.30
530;DHT22;251;48.704;9.210;2022-09-03T03:50:13;14.50;48.00
530;DHT22;251;48.704;9.210;2022-09-03T03:52:41;14.20;48.40
530;DHT22;251;48.704;9.210;2022-09-03T03:55:08;14.30;48.90
530;DHT22;251;48.704;9.210;2022-09-03T03:57:35;14.20;48.80
530;DHT22;251;48.704;9.210;2022-09-03T04:00:04;14.10;50.20
530;DHT22;251;48.704;9.210;2022-09-03T04:02:40;14.10;50.10
530;DHT22;251;48.704;9.210;2022-09-03T04:05:07;14.20;49.90
530;DHT22;251;48.704;9.210;2022-09-03T04:07:34;14.30;50.10
530;DHT22;251;48.704;9.210;2022-09-03T04:10:01;14.40;49.50
530;DHT22;251;48.704;9.210;2022-09-03T04:12:27;14.10;50.10
530;DHT22;251;48.704;9.210;2022-09-03T04:14:54;14.10;49.80
530;DHT22;251;48.704;9.210;2022-09-03T04:17:22;14.10;49.60
530;DHT22;251;48.704;9.210;2022-09-03T04:19:49;14.10;49.40
530;DHT22;251;48.704;9.210;2022-09-03T04:22:16;14.30;49.30
530;DHT22;251;48.704;9.210;2022-09-03T04:24:44;14.10;49.80
530;DHT22;251;48.704;9.210;2022-09-03T04:27:10;14.10;49.80
530;DHT22;251;48.704;9.210;2022-09-03T04:29:37;14.30;49.80
530;DHT22;251;48.704;9.210;2022-09-03T04:32:04;14.20;49.30
530;DHT22;251;48.704;9.210;2022-09-03T04:34:50;14.10;48.90
530;DHT22;251;48.704;9.210;2022-09-03T04:37:16;14.20;49.50
530;DHT22;251;48.704;9.210;2022-09-03T04:39:44;14.00;49.30
530;DHT22;251;48.704;9.210;2022-09-03T04:42:11;14.10;49.40
530;DHT22;251;48.704;9.210;2022-09-03T04:44:38;14.10;49.90
530;DHT22;251;48.704;9.210;2022-09-03T04:47:05;14.20;50.40
530;DHT22;251;48.704;9.210;2022-09-03T04:49:32;14.10;50.00
530;DHT22;251;48.704;9.210;2022-09-03T04:52:01;14.30;50.60
530;DHT22;251;48.704;9.210;2022-09-03T04:54:27;14.00;50.80
530;DHT22;251;48.704;9.210;2022-09-03T04:56:54;14.00;52.40
530;DHT22;251;48.704;9.210;2022-09-03T04:59:21;14.10;50.70
530;DHT22;251;48.704;9.210;2022-09-03T05:01:48;14.20;51.10
530;DHT22;251;48.704;9.210;2022-09-03T05:04:17;14.10;51.90
530;DHT22;251;48.704;9.210;2022-09-03T05:06:44;14.10;53.00
530;DHT22;251;48.704;9.210;2022-09-03T05:09:12;14.20;52.70
530;DHT22;251;48.704;9.210;2022-09-03T05:11:39;14.00;51.70
530;DHT22;251;48.704;9.210;2022-09-03T05:14:06;14.20;52.90
530;DHT22;251;48.704;9.210;2022-09-03T05:16:36;14.50;53.70
530;DHT22;251;48.704;9.210;2022-09-03T05:19:03;14.10;54.70
530;DHT22;251;48.704;9.210;2022-09-03T05:21:33;14.40;55.20
530;DHT22;251;48.704;9.210;2022-09-03T05:24:01;14.00;55.40
530;DHT22;251;48.704;9.210;2022-09-03T05:26:31;14.30;54.10
530;DHT22;251;48.704;9.210;2022-09-03T05:29:01;14.50;53.60
530;DHT22;251;48.704;9.210;2022-09-03T05:31:29;14.30;53.60
530;DHT22;251;48.704;9.210;2022-09-03T05:33:58;14.50;53.10
530;DHT22;251;48.704;9.210;2022-09-03T05:36:28;14.40;55.40
530;DHT22;251;48.704;9.210;2022-09-03T05:38:56;14.30;54.60
530;DHT22;251;48.704;9.210;2022-09-03T05:41:23;14.10;54.60
530;DHT22;251;48.704;9.210;2022-09-03T05:43:53;14.50;52.90
530;DHT22;251;48.704;9.210;2022-09-03T05:46:21;14.50;54.10
530;DHT22;251;48.704;9.210;2022-09-03T05:48:50;14.40;52.10
530;DHT22;251;48.704;9.210;2022-09-03T05:51:17;14.40;53.10
530;DHT22;251;48.704;9.210;2022-09-03T05:53:46;14.60;56.20
530;DHT22;251;48.704;9.210;2022-09-03T05:56:15;14.40;54.90
530;DHT22;251;48.704;9.210;2022-09-03T05:58:43;14.50;56.80
530;DHT22;251;48.704;9.210;2022-09-03T06:01:14;14.50;55.00
530;DHT22;251;48.704;9.210;2022-09-03T06:03:42;14.40;55.30
530;DHT22;251;48.704;9.210;2022-09-03T06:06:10;14.40;55.90
530;DHT22;251;48.704;9.210;2022-09-03T06:08:38;14.60;55.80
530;DHT22;251;48.704;9.210;2022-09-03T06:11:06;14.70;57.30
530;DHT22;251;48.704;9.210;2022-09-03T06:13:33;14.70;57.70
530;DHT22;251;48.704;9.210;2022-09-03T06:16:03;14.80;57.90
530;DHT22;251;48.704;9.210;2022-09-03T06:18:31;15.10;56.30
530;DHT22;251;48.704;9.210;2022-09-03T06:21:00;15.00;55.90
530;DHT22;251;48.704;9.210;2022-09-03T06:23:28;14.90;57.70
530;DHT22;251;48.704;9.210;2022-09-03T06:26:00;15.10;57.70
530;DHT22;251;48.704;9.210;2022-09-03T06:28:27;15.00;57.50
530;DHT22;251;48.704;9.210;2022-09-03T06:30:57;15.20;57.60
530;DHT22;251;48.704;9.210;2022-09-03T06:33:24;14.90;56.40
530;DHT22;251;48.704;9.210;2022-09-03T06:35:53;15.10;57.10
530;DHT22;251;48.704;9.210;2022-09-03T06:38:24;15.40;55.90
530;DHT22;251;48.704;9.210;2022-09-03T06:40:52;15.30;57.30
530;DHT22;251;48.704;9.210;2022-09-03T06:43:20;15.40;57.60
530;DHT22;251;48.704;9.210;2022-09-03T06:45:55;15.60;54.10
530;DHT22;251;48.704;9.210;2022-09-03T06:48:23;15.70;49.60
530;DHT22;251;48.704;9.210;2022-09-03T06:50:57;15.60;49.30
530;DHT22;251;48.704;9.210;2022-09-03T06:53:25;15.70;48.10
530;DHT22;251;48.704;9.210;2022-09-03T06:55:53;15.70;47.70
530;DHT22;251;48.704;9.210;2022-09-03T06:58:20;15.70;43.00
530;DHT22;251;48.704;9.210;2022-09-03T07:00:47;15.80;44.90
530;DHT22;251;48.704;9.210;2022-09-03T07:03:16;15.70;43.80
530;DHT22;251;48.704;9.210;2022-09-03T07:05:43;15.70;40.70
530;DHT22;251;48.704;9.210;2022-09-03T07:08:11;15.90;43.70
530;DHT22;251;48.704;9.210;2022-09-03T07:10:38;15.80;42.50
530;DHT22;251;48.704;9.210;2022-09-03T07:13:05;15.90;40.80
530;DHT22;251;48.704;9.210;2022-09-03T07:15:32;15.80;40.20
530;DHT22;251;48.704;9.210;2022-09-03T07:17:59;15.70;40.00
530;DHT22;251;48.704;9.210;2022-09-03T07:20:26;15.80;39.80
530;DHT22;251;48.704;9.210;2022-09-03T07:22:54;16.10;40.40
530;DHT22;251;48.704;9.210;2022-09-03T07:25:22;16.20;41.40
530;DHT22;251;48.704;9.210;2022-09-03T07:27:50;16.30;40.20
530;DHT22;251;48.704;9.210;2022-09-03T07:30:17;16.30;39.50
530;DHT22;251;48.704;9.210;2022-09-03T07:32:45;16.00;38.60
530;DHT22;251;48.704;9.210;2022-09-03T07:35:12;16.30;38.60
530;DHT22;251;48.704;9.210;2022-09-03T07:37:40;16.30;39.40
530;DHT22;251;48.704;9.210;2022-09-03T07:40:08;16.40;39.40
530;DHT22;251;48.704;9.210;2022-09-03T07:42:36;16.40;37.60
530;DHT22;251;48.704;9.210;2022-09-03T07:45:06;16.30;35.70
530;DHT22;251;48.704;9.210;2022-09-03T07:47:34;16.40;36.50
530;DHT22;251;48.704;9.210;2022-09-03T07:50:02;16.40;37.80
530;DHT22;251;48.704;9.210;2022-09-03T07:52:29;16.70;37.60
530;DHT22;251;48.704;9.210;2022-09-03T07:54:56;17.00;37.30
530;DHT22;251;48.704;9.210;2022-09-03T07:57:23;17.10;36.80
530;DHT22;251;48.704;9.210;2022-09-03T07:59:52;16.90;37.00
530;DHT22;251;48.704;9.210;2022-09-03T08:02:18;17.10;37.10
530;DHT22;251;48.704;9.210;2022-09-03T08:04:45;16.90;37.40
530;DHT22;251;48.704;9.210;2022-09-03T08:07:12;17.00;35.90
530;DHT22;251;48.704;9.210;2022-09-03T08:09:39;17.10;35.20
530;DHT22;251;48.704;9.210;2022-09-03T08:12:06;17.30;36.00
530;DHT22;251;48.704;9.210;2022-09-03T08:14:32;17.40;37.90
530;DHT22;251;48.704;9.210;2022-09-03T08:17:01;17.40;35.30
530;DHT22;251;48.704;9.210;2022-09-03T08:19:27;17.60;35.70
530;DHT22;251;48.704;9.210;2022-09-03T08:21:54;17.80;34.70
530;DHT22;251;48.704;9.210;2022-09-03T08:24:21;17.50;33.90
530;DHT22;251;48.704;9.210;2022-09-03T08:26:50;17.90;32.40
530;DHT22;251;48.704;9.210;2022-09-03T08:29:17;17.90;32.70
530;DHT22;251;48.704;9.210;2022-09-03T08:31:44;17.80;31.60
530;DHT22;251;48.704;9.210;2022-09-03T08:34:12;18.00;30.00
530;DHT22;251;48.704;9.210;2022-09-03T08:36:41;18.20;29.80
530;DHT22;251;48.704;9.210;2022-09-03T08:39:10;18.00;30.00
530;DHT22;251;48.704;9.210;2022-09-03T08:42:01;18.70;29.90
530;DHT22;251;48.704;9.210;2022-09-03T08:44:40;18.70;31.50
530;DHT22;251;48.704;9.210;2022-09-03T08:47:15;18.70;29.90
530;DHT22;251;48.704;9.210;2022-09-03T08:49:47;18.60;29.80
530;DHT22;251;48.704;9.210;2022-09-03T08:52:27;18.70;29.30
530;DHT22;251;48.704;9.210;2022-09-03T08:55:00;18.90;28.30
530;DHT22;251;48.704;9.210;2022-09-03T08:57:31;18.90;28.30
530;DHT22;251;48.704;9.210;2022-09-03T09:00:04;19.00;29.00
530;DHT22;251;48.704;9.210;2022-09-03T09:02:40;19.30;27.00
530;DHT22;251;48.704;9.210;2022-09-03T09:05:16;19.50;28.20
530;DHT22;251;48.704;9.210;2022-09-03T09:07:49;19.40;27.90
530;DHT22;251;48.704;9.210;2022-09-03T09:10:26;19.30;27.50
530;DHT22;251;48.704;9.210;2022-09-03T09:13:07;19.30;28.40
530;DHT22;251;48.704;9.210;2022-09-03T09:15:44;19.40;27.10
530;DHT22;251;48.704;9.210;2022-09-03T09:18:18;19.40;26.50
530;DHT22;251;48.704;9.210;2022-09-03T09:20:52;19.40;26.60
530;DHT22;251;48.704;9.210;2022-09-03T09:23:26;19.50;25.90
530;DHT22;251;48.704;9.210;2022-09-03T09:25:57;19.50;25.70
530;DHT22;251;48.704;9.210;2022-09-03T09:28:29;19.70;24.80
530;DHT22;251;48.704;9.210;2022-09-03T09:30:56;19.40;24.50
530;DHT22;251;48.704;9.210;2022-09-03T09:33:23;19.50;25.40
530;DHT22;251;48.704;9.210;2022-09-03T09:35:51;19.50;25.00
530;DHT22;251;48.704;9.210;2022-09-03T09:38:28;19.50;24.50
530;DHT22;251;48.704;9.210;2022-09-03T09:40:55;19.90;26.30
530;DHT22;251;48.704;9.210;2022-09-03T09:43:23;19.90;26.70
530;DHT22;251;48.704;9.210;2022-09-03T09:45:51;19.90;24.80
530;DHT22;251;48.704;9.210;2022-09-03T09:48:22;20.00;24.90
530;DHT22;251;48.704;9.210;2022-09-03T09:51:04;19.90;26.60
530;DHT22;251;48.704;9.210;2022-09-03T09:53:31;20.20;24.10
530;DHT22;251;48.704;9.210;2022-09-03T09:55:59;20.30;24.30
530;DHT22;251;48.704;9.210;2022-09-03T09:58:28;20.10;24.30
530;DHT22;251;48.704;9.210;2022-09-03T10:00:59;20.60;23.20
530;DHT22;251;48.704;9.210;2022-09-03T10:03:29;20.50;22.80
530;DHT22;251;48.704;9.210;2022-09-03T10:06:01;20.50;23.20
530;DHT22;251;48.704;9.210;2022-09-03T10:08:52;20.60;23.40
530;DHT22;251;48.704;9.210;2022-09-03T10:11:20;20.50;23.80
530;DHT22;251;48.704;9.210;2022-09-03T10:13:51;20.50;23.50
530;DHT22;251;48.704;9.210;2022-09-03T10:16:23;20.60;24.80
530;DHT22;251;48.704;9.210;2022-09-03T10:18:57;20.50;23.00
530;DHT22;251;48.704;9.210;2022-09-03T10:21:29;20.50;23.40
530;DHT22;251;48.704;9.210;2022-09-03T10:24:12;20.60;23.70
530;DHT22;251;48.704;9.210;2022-09-03T10:26:41;20.60;24.10
530;DHT22;251;48.704;9.210;2022-09-03T10:29:09;20.60;24.40
530;DHT22;251;48.704;9.210;2022-09-03T10:31:44;20.40;23.10
530;DHT22;251;48.704;9.210;2022-09-03T10:34:21;20.70;24.80
530;DHT22;251;48.704;9.210;2022-09-03T10:37:07;20.70;23.00
530;DHT22;251;48.704;9.210;2022-09-03T10:39:46;20.70;22.80
530;DHT22;251;48.704;9.210;2022-09-03T10:42:29;20.80;22.50
530;DHT22;251;48.704;9.210;2022-09-03T10:45:07;20.90;21.90
530;DHT22;251;48.704;9.210;2022-09-03T10:48:01;21.00;20.80
530;DHT22;251;48.704;9.210;2022-09-03T10:50:34;21.00;20.80
530;DHT22;251;48.704;9.210;2022-09-03T10:53:10;21.00;22.00
530;DHT22;251;48.704;9.210;2022-09-03T10:55:47;21.10;21.80
530;DHT22;251;48.704;9.210;2022-09-03T10:58:30;21.10;21.10
530;DHT22;251;48.704;9.210;2022-09-03T11:01:06;21.10;21.80
530;DHT22;251;48.704;9.210;2022-09-03T11:03:47;21.20;21.10
530;DHT22;251;48.704;9.210;2022-09-03T11:06:20;21.10;20.60
530;DHT22;251;48.704;9.210;2022-09-03T11:08:53;21.20;21.20
530;DHT22;251;48.704;9.210;2022-09-03T11:11:30;21.30;23.20
530;DHT22;251;48.704;9.210;2022-09-03T11:14:02;21.10;21.90
530;DHT22;251;48.704;9.210;2022-09-03T11:16:33;21.10;21.50
530;DHT22;251;48.704;9.210;2022-09-03T11:19:03;21.10;21.60
530;DHT22;251;48.704;9.210;2022-09-03T11:21:32;21.00;21.30
530;DHT22;251;48.704;9.210;2022-09-03T11:24:06;21.00;21.20
530;DHT22;251;48.704;9.210;2022-09-03T11:26:37;21.10;22.00
530;DHT22;251;48.704;9.210;2022-09-03T11:29:09;21.20;21.70
530;DHT22;251;48.704;9.210;2022-09-03T11:31:45;21.10;22.20
530;DHT22;251;48.704;9.210;2022-09-03T11:34:27;21.10;22.10
530;DHT22;251;48.704;9.210;2022-09-03T11:37:05;21.10;21.40
530;DHT22;251;48.704;9.210;2022-09-03T11:39:35;21.10;22.50
530;DHT22;251;48.704;9.210;2022-09-03T11:42:11;21.10;23.20
530;DHT22;251;48.704;9.210;2022-09-03T11:44:39;21.10;22.50
530;DHT22;251;48.704;9.210;2022-09-03T11:47:15;21.10;23.20
530;DHT22;251;48.704;9.210;2022-09-03T11:49:47;21.00;23.40
530;DHT22;251;48.704;9.210;2022-09-03T11:52:25;21.00;22.90
530;DHT22;251;48.704;9.210;2022-09-03T11:54:51;20.90;22.80
530;DHT22;251;48.704;9.210;2022-09-03T11:57:24;20.90;22.90
530;DHT22;251;48.704;9.210;2022-09-03T11:59:52;20.80;22.70
530;DHT22;251;48.704;9.210;2022-09-03T12:02:25;20.70;23.80
530;DHT22;251;48.704;9.210;2022-09-03T12:05:05;21.10;24.70
530;DHT22;251;48.704;9.210;2022-09-03T12:07:50;21.00;25.60
530;DHT22;251;48.704;9.210;2022-09-03T12:10:29;20.40;26.10
530;DHT22;251;48.704;9.210;2022-09-03T12:13:19;20.90;30.00
530;DHT22;251;48.704;9.210;2022-09-03T12:16:14;20.60;29.70
530;DHT22;251;48.704;9.210;2022-09-03T12:18:47;20.40;33.30
530;DHT22;251;48.704;9.210;2022-09-03T12:21:18;20.00;30.00
530;DHT22;251;48.704;9.210;2022-09-03T12:23:46;19.80;34.40
530;DHT22;251;48.704;9.210;2022-09-03T12:26:15;19.40;35.00
530;DHT22;251;48.704;9.210;2022-09-03T12:28:46;19.10;38.10
530;DHT22;251;48.704;9.210;2022-09-03T12:31:16;18.70;42.30
530;DHT22;251;48.704;9.210;2022-09-03T12:33:49;18.10;45.70
530;DHT22;251;48.704;9.210;2022-09-03T12:36:16;18.00;54.20
530;DHT22;251;48.704;9.210;2022-09-03T12:38:43;17.90;53.30
530;DHT22;251;48.704;9.210;2022-09-03T12:41:51;17.80;57.90
530;DHT22;251;48.704;9.210;2022-09-03T12:44:25;17.60;64.30
530;DHT22;251;48.704;9.210;2022-09-03T12:47:00;17.40;64.70
530;DHT22;251;48.704;9.210;2022-09-03T12:49:27;17.30;68.10
530;DHT22;251;48.704;9.210;2022-09-03T12:52:01;17.40;61.00
530;DHT22;251;48.704;9.210;2022-09-03T12:54:29;17.00;69.40
530;DHT22;251;48.704;9.210;2022-09-03T12:56:57;17.20;78.60
530;DHT22;251;48.704;9.210;2022-09-03T12:59:27;16.80;86.50
530;DHT22;251;48.704;9.210;2022-09-03T13:02:00;16.70;92.10
530;DHT22;251;48.704;9.210;2022-09-03T13:04:32;16.60;94.70
530;DHT22;251;48.704;9.210;2022-09-03T13:07:02;16.50;99.90
530;DHT22;251;48.704;9.210;2022-09-03T13:09:32;16.60;99.90
530;DHT22;251;48.704;9.210;2022-09-03T13:12:01;16.40;99.90
530;DHT22;251;48.704;9.210;2022-09-03T13:14:41;16.70;99.90
530;DHT22;251;48.704;9.210;2022-09-03T13:17:29;16.40;99.90
530;DHT22;251;48.704;9.210;2022-09-03T13:20:20;16.60;99.90
530;DHT22;251;48.704;9.210;2022-09-03T13:22:59;16.70;99.90
530;DHT22;251;48.704;9.210;2022-09-03T13:25:32;16.50;99.90
530;DHT22;251;48.704;9.210;2022-09-03T13:28:06;16.40;99.90
530;DHT22;251;48.704;9.210;2022-09-03T13:30:49;16.70;99.90
530;DHT22;251;48.704;9.210;2022-09-03T13:33:20;16.80;99.90
530;DHT22;251;48.704;9.210;2022-09-03T13:35:53;16.90;99.90
530;DHT22;251;48.704;9.210;2022-09-03T13:38:26;16.80;99.90
530;DHT22;251;48.704;9.210;2022-09-03T13:41:00;16.80;93.60
530;DHT22;251;48.704;9.210;2022-09-03T13:43:32;16.50;99.40
530;DHT22;251;48.704;9.210;2022-09-03T13:46:06;17.10;99.90
530;DHT22;251;48.704;9.210;2022-09-03T13:48:37;17.10;99.90
530;DHT22;251;48.704;9.210;2022-09-03T13:51:26;17.20;99.90
530;DHT22;251;48.704;9.210;2022-09-03T13:54:04;17.20;99.90
530;DHT22;251;48.704;9.210;2022-09-03T13:56:43;17.50;99.90
530;DHT22;251;48.704;9.210;2022-09-03T13:59:19;17.20;93.50
530;DHT22;251;48.704;9.210;2022-09-03T14:02:15;17.50;99.90
530;DHT22;251;48.704;9.210;2022-09-03T14:04:51;17.40;99.90
530;DHT22;251;48.704;9.210;2022-09-03T14:07:24;17.80;99.90
530;DHT22;251;48.704;9.210;2022-09-03T14:09:58;17.80;99.90
530;DHT22;251;48.704;9.210;2022-09-03T14:12:34;18.00;99.90
530;DHT22;251;48.704;9.210;2022-09-03T14:15:09;18.10;99.90
530;DHT22;251;48.704;9.210;2022-09-03T14:17:46;18.30;99.90
530;DHT22;251;48.704;9.210;2022-09-03T14:20:19;18.10;99.90
530;DHT22;251;48.704;9.210;2022-09-03T14:22:52;18.40;98.00
530;DHT22;251;48.704;9.210;2022-09-03T14:25:23;18.50;99.90
530;DHT22;251;48.704;9.210;2022-09-03T14:27:50;18.40;95.70
530;DHT22;251;48.704;9.210;2022-09-03T14:30:24;18.40;72.50
530;DHT22;251;48.704;9.210;2022-09-03T14:33:01;18.60;73.50
530;DHT22;251;48.704;9.210;2022-09-03T14:35:35;18.60;76.10
530;DHT22;251;48.704;9.210;2022-09-03T14:38:29;18.80;72.20
530;DHT22;251;48.704;9.210;2022-09-03T14:41:04;18.80;85.60
530;DHT22;251;48.704;9.210;2022-09-03T14:43:51;18.70;66.10
530;DHT22;251;48.704;9.210;2022-09-03T14:46:34;18.80;64.50
530;DHT22;251;48.704;9.210;2022-09-03T14:49:19;18.70;53.50
530;DHT22;251;48.704;9.210;2022-09-03T14:52:03;18.80;50.80
530;DHT22;251;48.704;9.210;2022-09-03T14:54:49;18.80;56.80
530;DHT22;251;48.704;9.210;2022-09-03T14:57:53;18.60;48.30
530;DHT22;251;48.704;9.210;2022-09-03T15:00:31;19.00;53.40
530;DHT22;251;48.704;9.210;2022-09-03T15:03:32;18.70;48.00
530;DHT22;251;48.704;9.210;2022-09-03T15:06:09;19.30;48.00
530;DHT22;251;48.704;9.210;2022-09-03T15:08:48;19.30;52.00
530;DHT22;251;48.704;9.210;2022-09-03T15:11:20;19.20;41.40
530;DHT22;251;48.704;9.210;2022-09-03T15:13:51;19.30;45.20
530;DHT22;251;48.704;9.210;2022-09-03T15:16:33;19.40;46.50
530;DHT22;251;48.704;9.210;2022-09-03T15:19:12;19.40;43.70
530;DHT22;251;48.704;9.210;2022-09-03T15:21:58;19.40;43.90
530;DHT22;251;48.704;9.210;2022-09-03T15:24:39;19.50;46.50
530;DHT22;251;48.704;9.210;2022-09-03T15:27:16;19.50;51.00
530;DHT22;251;48.704;9.210;2022-09-03T15:29:50;19.50;50.30
530;DHT22;251;48.704;9.210;2022-09-03T15:32:28;19.60;48.20
530;DHT22;251;48.704;9.210;2022-09-03T15:35:05;19.60;46.00
530;DHT22;251;48.704;9.210;2022-09-03T15:37:41;19.70;43.60
530;DHT22;251;48.704;9.210;2022-09-03T15:40:27;19.90;47.20
530;DHT22;251;48.704;9.210;2022-09-03T15:43:01;19.80;45.50
530;DHT22;251;48.704;9.210;2022-09-03T15:45:37;20.10;46.20
530;DHT22;251;48.704;9.210;2022-09-03T15:48:11;20.20;45.00
530;DHT22;251;48.704;9.210;2022-09-03T15:50:51;20.20;40.30
530;DHT22;251;48.704;9.210;2022-09-03T15:53:27;20.20;42.00
530;DHT22;251;48.704;9.210;2022-09-03T15:56:08;20.30;42.20
530;DHT22;251;48.704;9.210;2022-09-03T15:58:41;20.10;36.30
530;DHT22;251;48.704;9.210;2022-09-03T16:01:21;20.10;41.20
530;DHT22;251;48.704;9.210;2022-09-03T16:03:57;20.10;42.60
530;DHT22;251;48.704;9.210;2022-09-03T16:06:32;20.10;38.70
530;DHT22;251;48.704;9.210;2022-09-03T16:09:08;20.20;43.10
530;DHT22;251;48.704;9.210;2022-09-03T16:11:51;20.20;39.60
530;DHT22;251;48.704;9.210;2022-09-03T16:14:25;20.20;37.80
530;DHT22;251;48.704;9.210;2022-09-03T16:16:59;20.30;36.50
530;DHT22;251;48.704;9.210;2022-09-03T16:19:35;20.30;37.80
530;DHT22;251;48.704;9.210;2022-09-03T16:22:06;20.30;39.60
530;DHT22;251;48.704;9.210;2022-09-03T16:24:43;20.20;38.20
530;DHT22;251;48.704;9.210;2022-09-03T16:27:16;20.20;39.40
530;DHT22;251;48.704;9.210;2022-09-03T16:29:56;20.10;37.60
530;DHT22;251;48.704;9.210;2022-09-03T16:32:30;20.20;38.30
530;DHT22;251;48.704;9.210;2022-09-03T16:35:09;20.10;41.70
530;DHT22;251;48.704;9.210;2022-09-03T16:37:45;20.10;40.50
530;DHT22;251;48.704;9.210;2022-09-03T16:40:20;19.90;43.80
530;DHT22;251;48.704;9.210;2022-09-03T16:42:53;20.00;43.50
530;DHT22;251;48.704;9.210;2022-09-03T16:45:32;19.80;42.30
530;DHT22;251;48.704;9.210;2022-09-03T16:48:14;20.00;43.70
530;DHT22;251;48.704;9.210;2022-09-03T16:50:54;19.70;43.00
530;DHT22;251;48.704;9.210;2022-09-03T16:53:29;20.00;45.00
530;DHT22;251;48.704;9.210;2022-09-03T16:56:14;19.80;46.50
530;DHT22;251;48.704;9.210;2022-09-03T16:58:52;19.80;46.90
530;DHT22;251;48.704;9.210;2022-09-03T17:01:37;19.90;48.40
530;DHT22;251;48.704;9.210;2022-09-03T17:04:38;19.90;43.90
530;DHT22;251;48.704;9.210;2022-09-03T17:07:23;19.50;44.10
530;DHT22;251;48.704;9.210;2022-09-03T17:10:00;19.60;46.70
530;DHT22;251;48.704;9.210;2022-09-03T17:12:36;19.80;42.80